sensor_id;sensor_type;location;lat;lon;timestamp;P1;durP1;ratioP1;P2;durP2;ratioP2
39050;SDS011;24805;55.852;37.644;2023-12-04T00:01:02;5.35;;;2.80;;
39050;SDS011;24805;55.852;37.644;2023-12-04T00:06:04;6.43;;;3.22;;
39050;SDS011;24805;55.852;37.644;2023-12-04T00:11:07;5.70;;;3.35;;
39050;SDS011;24805;55.852;37.644;2023-12-04T00:16:09;7.32;;;3.42;;
39050;SDS011;24805;55.852;37.644;2023-12-04T00:21:12;6.10;;;2.90;;
39050;SDS011;24805;55.852;37.644;2023-12-04T00:26:15;4.53;;;2.15;;
39050;SDS011;24805;55.852;37.644;2023-12-04T00:31:17;5.88;;;2.92;;
39050;SDS011;24805;55.852;37.644;2023-12-04T00:36:19;8.07;;;3.15;;
39050;SDS011;24805;55.852;37.644;2023-12-04T00:41:21;7.10;;;3.67;;
39050;SDS011;24805;55.852;37.644;2023-12-04T00:46:24;5.30;;;2.65;;
39050;SDS011;24805;55.852;37.644;2023-12-04T00:51:26;6.00;;;3.05;;
39050;SDS011;24805;55.852;37.644;2023-12-04T00:56:28;5.32;;;3.28;;
39050;SDS011;24805;55.852;37.644;2023-12-04T01:01:30;4.95;;;2.97;;
39050;SDS011;24805;55.852;37.644;2023-12-04T01:06:33;6.13;;;3.40;;
39050;SDS011;24805;55.852;37.644;2023-12-04T01:11:35;4.47;;;2.50;;
39050;SDS011;24805;55.852;37.644;2023-12-04T01:16:38;4.72;;;2.42;;
39050;SDS011;24805;55.852;37.644;2023-12-04T01:21:40;8.10;;;3.40;;
39050;SDS011;24805;55.852;37.644;2023-12-04T01:26:44;5.97;;;3.30;;
39050;SDS011;24805;55.852;37.644;2023-12-04T01:31:46;7.35;;;3.53;;
39050;SDS011;24805;55.852;37.644;2023-12-04T01:36:48;6.38;;;3.47;;
39050;SDS011;24805;55.852;37.644;2023-12-04T01:41:50;5.50;;;3.17;;
39050;SDS011;24805;55.852;37.644;2023-12-04T01:46:52;7.05;;;4.03;;
39050;SDS011;24805;55.852;37.644;2023-12-04T01:51:55;8.00;;;4.22;;
39050;SDS011;24805;55.852;37.644;2023-12-04T01:56:58;6.10;;;3.30;;
39050;SDS011;24805;55.852;37.644;2023-12-04T02:02:01;6.88;;;3.67;;
39050;SDS011;24805;55.852;37.644;2023-12-04T02:07:03;7.78;;;4.05;;
39050;SDS011;24805;55.852;37.644;2023-12-04T02:12:06;8.63;;;4.10;;
39050;SDS011;24805;55.852;37.644;2023-12-04T02:17:08;7.25;;;3.15;;
39050;SDS011;24805;55.852;37.644;2023-12-04T02:22:12;7.53;;;3.63;;
39050;SDS011;24805;55.852;37.644;2023-12-04T02:32:24;6.88;;;4.13;;
39050;SDS011;24805;55.852;37.644;2023-12-04T02:37:29;7.00;;;3.80;;
39050;SDS011;24805;55.852;37.644;2023-12-04T02:42:32;9.38;;;4.25;;
39050;SDS011;24805;55.852;37.644;2023-12-04T02:47:35;6.07;;;3.50;;
39050;SDS011;24805;55.852;37.644;2023-12-04T02:52:37;7.18;;;4.30;;
39050;SDS011;24805;55.852;37.644;2023-12-04T02:57:39;11.75;;;4.72;;
39050;SDS011;24805;55.852;37.644;2023-12-04T03:02:41;6.72;;;4.47;;
39050;SDS011;24805;55.852;37.644;2023-12-04T03:07:43;7.78;;;4.65;;
39050;SDS011;24805;55.852;37.644;2023-12-04T03:12:47;8.88;;;4.88;;
39050;SDS011;24805;55.852;37.644;2023-12-04T03:17:49;6.00;;;3.42;;
39050;SDS011;24805;55.852;37.644;2023-12-04T03:22:51;6.40;;;3.45;;
39050;SDS011;24805;55.852;37.644;2023-12-04T03:27:54;7.22;;;3.83;;
39050;SDS011;24805;55.852;37.644;2023-12-04T03:32:56;7.70;;;4.07;;
39050;SDS011;24805;55.852;37.644;2023-12-04T03:37:58;9.00;;;4.72;;
39050;SDS011;24805;55.852;37.644;2023-12-04T03:43:00;7.82;;;4.13;;
39050;SDS011;24805;55.852;37.644;2023-12-04T03:48:02;9.05;;;4.45;;
39050;SDS011;24805;55.852;37.644;2023-12-04T03:53:05;10.40;;;5.15;;
39050;SDS011;24805;55.852;37.644;2023-12-04T03:58:07;8.43;;;4.05;;
39050;SDS011;24805;55.852;37.644;2023-12-04T04:03:10;10.70;;;5.25;;
39050;SDS011;24805;55.852;37.644;2023-12-04T04:08:12;9.18;;;4.72;;
39050;SDS011;24805;55.852;37.644;2023-12-04T04:13:14;9.55;;;5.05;;
39050;SDS011;24805;55.852;37.644;2023-12-04T04:18:16;9.25;;;5.28;;
39050;SDS011;24805;55.852;37.644;2023-12-04T04:23:19;12.15;;;5.28;;
39050;SDS011;24805;55.852;37.644;2023-12-04T04:28:21;12.02;;;6.30;;
39050;SDS011;24805;55.852;37.644;2023-12-04T04:33:23;9.88;;;5.47;;
39050;SDS011;24805;55.852;37.644;2023-12-04T04:38:26;12.13;;;6.63;;
39050;SDS011;24805;55.852;37.644;2023-12-04T04:43:28;12.20;;;5.93;;
39050;SDS011;24805;55.852;37.644;2023-12-04T04:48:30;11.43;;;5.88;;
39050;SDS011;24805;55.852;37.644;2023-12-04T04:53:33;8.07;;;5.15;;
39050;SDS011;24805;55.852;37.644;2023-12-04T04:58:35;11.63;;;6.05;;
39050;SDS011;24805;55.852;37.644;2023-12-04T05:03:37;11.55;;;5.95;;
39050;SDS011;24805;55.852;37.644;2023-12-04T05:08:39;13.05;;;5.90;;
39050;SDS011;24805;55.852;37.644;2023-12-04T05:13:42;10.55;;;5.75;;
39050;SDS011;24805;55.852;37.644;2023-12-04T05:18:44;10.38;;;6.05;;
39050;SDS011;24805;55.852;37.644;2023-12-04T05:23:46;11.02;;;6.15;;
39050;SDS011;24805;55.852;37.644;2023-12-04T05:28:48;12.35;;;6.55;;
39050;SDS011;24805;55.852;37.644;2023-12-04T05:33:51;13.52;;;7.35;;
39050;SDS011;24805;55.852;37.644;2023-12-04T05:38:53;11.50;;;5.85;;
39050;SDS011;24805;55.852;37.644;2023-12-04T05:43:57;11.77;;;6.65;;
39050;SDS011;24805;55.852;37.644;2023-12-04T05:48:59;13.15;;;6.70;;
39050;SDS011;24805;55.852;37.644;2023-12-04T05:54:01;11.00;;;6.25;;
39050;SDS011;24805;55.852;37.644;2023-12-04T05:59:04;11.35;;;6.55;;
39050;SDS011;24805;55.852;37.644;2023-12-04T06:04:06;11.23;;;5.75;;
39050;SDS011;24805;55.852;37.644;2023-12-04T06:09:08;12.27;;;7.03;;
39050;SDS011;24805;55.852;37.644;2023-12-04T06:14:10;12.80;;;6.68;;
39050;SDS011;24805;55.852;37.644;2023-12-04T06:19:12;11.15;;;6.20;;
39050;SDS011;24805;55.852;37.644;2023-12-04T06:24:15;11.82;;;6.03;;
39050;SDS011;24805;55.852;37.644;2023-12-04T06:29:18;9.00;;;4.47;;
39050;SDS011;24805;55.852;37.644;2023-12-04T06:34:21;10.68;;;5.47;;
39050;SDS011;24805;55.852;37.644;2023-12-04T06:39:23;13.20;;;6.82;;
39050;SDS011;24805;55.852;37.644;2023-12-04T06:44:30;12.38;;;6.22;;
39050;SDS011;24805;55.852;37.644;2023-12-04T06:49:32;11.95;;;6.18;;
39050;SDS011;24805;55.852;37.644;2023-12-04T06:54:35;13.00;;;6.07;;
39050;SDS011;24805;55.852;37.644;2023-12-04T06:59:37;11.63;;;5.70;;
39050;SDS011;24805;55.852;37.644;2023-12-04T07:04:39;16.33;;;6.32;;
39050;SDS011;24805;55.852;37.644;2023-12-04T07:09:41;13.35;;;6.13;;
39050;SDS011;24805;55.852;37.644;2023-12-04T07:14:43;9.73;;;5.70;;
39050;SDS011;24805;55.852;37.644;2023-12-04T07:19:46;11.38;;;6.57;;
39050;SDS011;24805;55.852;37.644;2023-12-04T07:24:48;13.00;;;6.28;;
39050;SDS011;24805;55.852;37.644;2023-12-04T07:29:50;12.10;;;5.90;;
39050;SDS011;24805;55.852;37.644;2023-12-04T07:34:52;11.82;;;6.20;;
39050;SDS011;24805;55.852;37.644;2023-12-04T07:39:55;12.95;;;7.10;;
39050;SDS011;24805;55.852;37.644;2023-12-04T07:44:58;12.32;;;7.22;;
39050;SDS011;24805;55.852;37.644;2023-12-04T07:50:00;12.75;;;6.78;;
39050;SDS011;24805;55.852;37.644;2023-12-04T07:55:04;14.85;;;7.90;;
39050;SDS011;24805;55.852;37.644;2023-12-04T08:00:07;15.88;;;7.20;;
39050;SDS011;24805;55.852;37.644;2023-12-04T08:05:09;15.48;;;7.65;;
39050;SDS011;24805;55.852;37.644;2023-12-04T08:10:13;12.68;;;7.00;;
39050;SDS011;24805;55.852;37.644;2023-12-04T08:15:17;14.55;;;7.22;;
39050;SDS011;24805;55.852;37.644;2023-12-04T08:20:19;15.90;;;8.15;;
39050;SDS011;24805;55.852;37.644;2023-12-04T08:25:36;12.52;;;6.78;;
39050;SDS011;24805;55.852;37.644;2023-12-04T08:30:41;14.38;;;7.43;;
39050;SDS011;24805;55.852;37.644;2023-12-04T08:35:43;15.23;;;7.90;;
39050;SDS011;24805;55.852;37.644;2023-12-04T08:40:45;11.90;;;7.07;;
39050;SDS011;24805;55.852;37.644;2023-12-04T08:45:47;14.05;;;7.25;;
39050;SDS011;24805;55.852;37.644;2023-12-04T08:50:49;14.77;;;7.10;;
39050;SDS011;24805;55.852;37.644;2023-12-04T08:55:51;14.32;;;8.15;;
39050;SDS011;24805;55.852;37.644;2023-12-04T09:00:54;16.17;;;8.43;;
39050;SDS011;24805;55.852;37.644;2023-12-04T09:05:57;16.27;;;7.78;;
39050;SDS011;24805;55.852;37.644;2023-12-04T09:11:00;17.55;;;8.65;;
39050;SDS011;24805;55.852;37.644;2023-12-04T09:16:20;12.83;;;6.80;;
39050;SDS011;24805;55.852;37.644;2023-12-04T09:21:23;14.13;;;7.50;;
39050;SDS011;24805;55.852;37.644;2023-12-04T09:26:25;14.18;;;7.45;;
39050;SDS011;24805;55.852;37.644;2023-12-04T09:31:27;13.52;;;7.45;;
39050;SDS011;24805;55.852;37.644;2023-12-04T09:36:29;13.50;;;7.43;;
39050;SDS011;24805;55.852;37.644;2023-12-04T09:41:32;12.02;;;6.82;;
39050;SDS011;24805;55.852;37.644;2023-12-04T09:46:35;13.20;;;6.65;;
39050;SDS011;24805;55.852;37.644;2023-12-04T09:51:38;13.95;;;7.43;;
39050;SDS011;24805;55.852;37.644;2023-12-04T09:56:40;12.20;;;5.85;;
39050;SDS011;24805;55.852;37.644;2023-12-04T10:01:43;13.80;;;7.68;;
39050;SDS011;24805;55.852;37.644;2023-12-04T10:06:46;14.10;;;7.45;;
39050;SDS011;24805;55.852;37.644;2023-12-04T10:11:58;13.45;;;7.75;;
39050;SDS011;24805;55.852;37.644;2023-12-04T10:17:13;13.85;;;7.60;;
39050;SDS011;24805;55.852;37.644;2023-12-04T10:22:16;13.80;;;7.07;;
39050;SDS011;24805;55.852;37.644;2023-12-04T10:27:18;15.90;;;7.53;;
39050;SDS011;24805;55.852;37.644;2023-12-04T10:32:28;15.60;;;7.05;;
39050;SDS011;24805;55.852;37.644;2023-12-04T10:37:30;13.88;;;6.25;;
39050;SDS011;24805;55.852;37.644;2023-12-04T10:42:32;14.75;;;7.82;;
39050;SDS011;24805;55.852;37.644;2023-12-04T10:47:35;16.98;;;8.18;;
39050;SDS011;24805;55.852;37.644;2023-12-04T10:52:38;14.98;;;7.53;;
39050;SDS011;24805;55.852;37.644;2023-12-04T10:57:42;13.15;;;7.60;;
39050;SDS011;24805;55.852;37.644;2023-12-04T11:02:46;15.88;;;8.70;;
39050;SDS011;24805;55.852;37.644;2023-12-04T11:07:51;14.32;;;8.05;;
39050;SDS011;24805;55.852;37.644;2023-12-04T11:13:21;14.93;;;7.80;;
39050;SDS011;24805;55.852;37.644;2023-12-04T11:18:27;14.23;;;7.05;;
39050;SDS011;24805;55.852;37.644;2023-12-04T11:23:33;14.70;;;6.72;;
39050;SDS011;24805;55.852;37.644;2023-12-04T11:28:36;17.98;;;8.95;;
39050;SDS011;24805;55.852;37.644;2023-12-04T11:33:40;14.55;;;6.57;;
39050;SDS011;24805;55.852;37.644;2023-12-04T11:38:45;17.23;;;8.70;;
39050;SDS011;24805;55.852;37.644;2023-12-04T11:43:51;18.50;;;9.07;;
39050;SDS011;24805;55.852;37.644;2023-12-04T11:48:55;15.30;;;7.80;;
39050;SDS011;24805;55.852;37.644;2023-12-04T11:54:16;17.77;;;9.02;;
39050;SDS011;24805;55.852;37.644;2023-12-04T11:59:20;14.25;;;7.70;;
39050;SDS011;24805;55.852;37.644;2023-12-04T12:04:22;17.08;;;8.10;;
39050;SDS011;24805;55.852;37.644;2023-12-04T12:09:25;12.80;;;6.70;;
39050;SDS011;24805;55.852;37.644;2023-12-04T12:14:29;15.38;;;7.18;;
39050;SDS011;24805;55.852;37.644;2023-12-04T12:19:32;13.93;;;6.85;;
39050;SDS011;24805;55.852;37.644;2023-12-04T12:24:34;14.57;;;7.53;;
39050;SDS011;24805;55.852;37.644;2023-12-04T12:29:36;13.90;;;6.85;;
39050;SDS011;24805;55.852;37.644;2023-12-04T12:34:39;14.25;;;7.68;;
39050;SDS011;24805;55.852;37.644;2023-12-04T12:39:41;12.88;;;7.00;;
39050;SDS011;24805;55.852;37.644;2023-12-04T12:44:43;14.30;;;7.97;;
39050;SDS011;24805;55.852;37.644;2023-12-04T12:49:46;16.27;;;7.57;;
39050;SDS011;24805;55.852;37.644;2023-12-04T12:54:49;15.60;;;8.57;;
39050;SDS011;24805;55.852;37.644;2023-12-04T12:59:51;14.82;;;7.43;;
39050;SDS011;24805;55.852;37.644;2023-12-04T13:04:54;14.73;;;7.78;;
39050;SDS011;24805;55.852;37.644;2023-12-04T13:09:58;17.77;;;7.47;;
39050;SDS011;24805;55.852;37.644;2023-12-04T13:15:00;17.45;;;8.57;;
39050;SDS011;24805;55.852;37.644;2023-12-04T13:20:04;17.23;;;8.30;;
39050;SDS011;24805;55.852;37.644;2023-12-04T13:25:07;13.50;;;6.95;;
39050;SDS011;24805;55.852;37.644;2023-12-04T13:30:11;18.10;;;7.50;;
39050;SDS011;24805;55.852;37.644;2023-12-04T13:35:14;14.32;;;7.05;;
39050;SDS011;24805;55.852;37.644;2023-12-04T13:40:17;16.08;;;7.85;;
39050;SDS011;24805;55.852;37.644;2023-12-04T13:45:20;18.80;;;9.40;;
39050;SDS011;24805;55.852;37.644;2023-12-04T13:50:23;18.80;;;10.38;;
39050;SDS011;24805;55.852;37.644;2023-12-04T13:55:25;18.30;;;8.93;;
39050;SDS011;24805;55.852;37.644;2023-12-04T14:00:46;16.75;;;8.98;;
39050;SDS011;24805;55.852;37.644;2023-12-04T14:05:48;18.67;;;8.48;;
39050;SDS011;24805;55.852;37.644;2023-12-04T14:10:51;20.20;;;10.38;;
39050;SDS011;24805;55.852;37.644;2023-12-04T14:15:54;21.90;;;10.20;;
39050;SDS011;24805;55.852;37.644;2023-12-04T14:20:57;18.42;;;9.10;;
39050;SDS011;24805;55.852;37.644;2023-12-04T14:26:00;18.88;;;10.10;;
39050;SDS011;24805;55.852;37.644;2023-12-04T14:31:03;21.58;;;10.27;;
39050;SDS011;24805;55.852;37.644;2023-12-04T14:36:06;23.67;;;10.10;;
39050;SDS011;24805;55.852;37.644;2023-12-04T14:41:09;21.38;;;9.95;;
39050;SDS011;24805;55.852;37.644;2023-12-04T14:46:11;19.67;;;8.98;;
39050;SDS011;24805;55.852;37.644;2023-12-04T14:51:14;20.00;;;10.02;;
39050;SDS011;24805;55.852;37.644;2023-12-04T14:56:17;21.75;;;10.00;;
39050;SDS011;24805;55.852;37.644;2023-12-04T15:01:37;18.90;;;10.13;;
39050;SDS011;24805;55.852;37.644;2023-12-04T15:06:40;22.83;;;10.30;;
39050;SDS011;24805;55.852;37.644;2023-12-04T15:12:02;19.90;;;9.32;;
39050;SDS011;24805;55.852;37.644;2023-12-04T15:17:05;15.40;;;7.20;;
39050;SDS011;24805;55.852;37.644;2023-12-04T15:22:25;17.83;;;9.40;;
39050;SDS011;24805;55.852;37.644;2023-12-04T15:27:28;17.80;;;9.77;;
39050;SDS011;24805;55.852;37.644;2023-12-04T15:32:30;18.90;;;8.77;;
39050;SDS011;24805;55.852;37.644;2023-12-04T15:37:32;17.23;;;8.90;;
39050;SDS011;24805;55.852;37.644;2023-12-04T15:42:35;20.08;;;9.25;;
39050;SDS011;24805;55.852;37.644;2023-12-04T15:47:38;18.13;;;9.48;;
39050;SDS011;24805;55.852;37.644;2023-12-04T15:52:40;18.50;;;9.10;;
39050;SDS011;24805;55.852;37.644;2023-12-04T15:57:44;16.85;;;8.02;;
39050;SDS011;24805;55.852;37.644;2023-12-04T16:02:46;17.83;;;8.27;;
39050;SDS011;24805;55.852;37.644;2023-12-04T16:07:48;20.77;;;9.82;;
39050;SDS011;24805;55.852;37.644;2023-12-04T16:12:50;24.20;;;9.27;;
39050;SDS011;24805;55.852;37.644;2023-12-04T16:17:52;19.95;;;8.65;;
39050;SDS011;24805;55.852;37.644;2023-12-04T16:22:54;21.92;;;9.25;;
39050;SDS011;24805;55.852;37.644;2023-12-04T16:27:59;17.10;;;8.20;;
39050;SDS011;24805;55.852;37.644;2023-12-04T16:33:02;19.52;;;8.90;;
39050;SDS011;24805;55.852;37.644;2023-12-04T16:38:04;18.52;;;9.07;;
39050;SDS011;24805;55.852;37.644;2023-12-04T16:43:09;18.27;;;9.73;;
39050;SDS011;24805;55.852;37.644;2023-12-04T16:48:11;18.33;;;8.23;;
39050;SDS011;24805;55.852;37.644;2023-12-04T16:53:13;21.25;;;9.48;;
39050;SDS011;24805;55.852;37.644;2023-12-04T16:58:16;20.75;;;9.00;;
39050;SDS011;24805;55.852;37.644;2023-12-04T17:03:18;22.00;;;8.85;;
39050;SDS011;24805;55.852;37.644;2023-12-04T17:08:21;18.00;;;9.23;;
39050;SDS011;24805;55.852;37.644;2023-12-04T17:13:23;24.52;;;9.75;;
39050;SDS011;24805;55.852;37.644;2023-12-04T17:18:27;25.05;;;11.00;;
39050;SDS011;24805;55.852;37.644;2023-12-04T17:23:29;22.48;;;10.38;;
39050;SDS011;24805;55.852;37.644;2023-12-04T17:28:32;26.92;;;10.43;;
39050;SDS011;24805;55.852;37.644;2023-12-04T17:33:34;22.52;;;9.77;;
39050;SDS011;24805;55.852;37.644;2023-12-04T17:38:37;21.67;;;10.10;;
39050;SDS011;24805;55.852;37.644;2023-12-04T17:43:39;26.58;;;11.13;;
39050;SDS011;24805;55.852;37.644;2023-12-04T17:48:41;19.17;;;9.25;;
39050;SDS011;24805;55.852;37.644;2023-12-04T17:53:46;21.80;;;9.93;;
39050;SDS011;24805;55.852;37.644;2023-12-04T17:58:50;23.55;;;9.63;;
39050;SDS011;24805;55.852;37.644;2023-12-04T18:03:53;21.02;;;9.27;;
39050;SDS011;24805;55.852;37.644;2023-12-04T18:08:55;20.52;;;10.65;;
39050;SDS011;24805;55.852;37.644;2023-12-04T18:13:57;20.65;;;9.57;;
39050;SDS011;24805;55.852;37.644;2023-12-04T18:19:00;22.00;;;10.60;;
39050;SDS011;24805;55.852;37.644;2023-12-04T18:24:02;23.27;;;9.93;;
39050;SDS011;24805;55.852;37.644;2023-12-04T18:29:05;23.65;;;10.60;;
39050;SDS011;24805;55.852;37.644;2023-12-04T18:34:09;19.13;;;9.30;;
39050;SDS011;24805;55.852;37.644;2023-12-04T18:39:11;23.58;;;10.45;;
39050;SDS011;24805;55.852;37.644;2023-12-04T18:44:17;25.23;;;11.27;;
39050;SDS011;24805;55.852;37.644;2023-12-04T18:49:20;23.05;;;10.23;;
39050;SDS011;24805;55.852;37.644;2023-12-04T18:54:23;22.83;;;10.30;;
39050;SDS011;24805;55.852;37.644;2023-12-04T18:59:25;22.83;;;10.57;;
39050;SDS011;24805;55.852;37.644;2023-12-04T19:04:27;24.98;;;11.57;;
39050;SDS011;24805;55.852;37.644;2023-12-04T19:09:29;20.98;;;10.20;;
39050;SDS011;24805;55.852;37.644;2023-12-04T19:14:32;22.58;;;9.75;;
39050;SDS011;24805;55.852;37.644;2023-12-04T19:19:34;20.73;;;9.88;;
39050;SDS011;24805;55.852;37.644;2023-12-04T19:24:37;22.58;;;10.38;;
39050;SDS011;24805;55.852;37.644;2023-12-04T19:29:39;23.80;;;10.90;;
39050;SDS011;24805;55.852;37.644;2023-12-04T19:34:42;22.80;;;10.77;;
39050;SDS011;24805;55.852;37.644;2023-12-04T19:39:44;22.35;;;10.23;;
39050;SDS011;24805;55.852;37.644;2023-12-04T19:44:46;19.67;;;9.05;;
39050;SDS011;24805;55.852;37.644;2023-12-04T19:49:49;18.48;;;9.20;;
39050;SDS011;24805;55.852;37.644;2023-12-04T19:54:51;20.85;;;9.82;;
39050;SDS011;24805;55.852;37.644;2023-12-04T19:59:54;18.88;;;8.93;;
39050;SDS011;24805;55.852;37.644;2023-12-04T20:04:57;21.98;;;10.35;;
39050;SDS011;24805;55.852;37.644;2023-12-04T20:09:59;20.55;;;8.63;;
39050;SDS011;24805;55.852;37.644;2023-12-04T20:15:02;18.80;;;9.40;;
39050;SDS011;24805;55.852;37.644;2023-12-04T20:20:05;20.73;;;9.82;;
39050;SDS011;24805;55.852;37.644;2023-12-04T20:25:09;21.13;;;9.65;;
39050;SDS011;24805;55.852;37.644;2023-12-04T20:30:11;21.15;;;9.73;;
39050;SDS011;24805;55.852;37.644;2023-12-04T20:35:13;22.33;;;9.52;;
39050;SDS011;24805;55.852;37.644;2023-12-04T20:40:16;19.58;;;9.82;;
39050;SDS011;24805;55.852;37.644;2023-12-04T20:45:21;20.50;;;10.10;;
39050;SDS011;24805;55.852;37.644;2023-12-04T20:50:28;20.70;;;9.23;;
39050;SDS011;24805;55.852;37.644;2023-12-04T20:55:30;19.30;;;9.25;;
39050;SDS011;24805;55.852;37.644;2023-12-04T21:00:33;22.90;;;8.52;;
39050;SDS011;24805;55.852;37.644;2023-12-04T21:05:36;22.70;;;9.48;;
39050;SDS011;24805;55.852;37.644;2023-12-04T21:10:39;19.73;;;9.25;;
39050;SDS011;24805;55.852;37.644;2023-12-04T21:15:42;20.92;;;9.70;;
39050;SDS011;24805;55.852;37.644;2023-12-04T21:20:44;21.73;;;9.45;;
39050;SDS011;24805;55.852;37.644;2023-12-04T21:25:46;18.05;;;8.75;;
39050;SDS011;24805;55.852;37.644;2023-12-04T21:30:49;19.92;;;9.30;;
39050;SDS011;24805;55.852;37.644;2023-12-04T21:35:53;18.80;;;7.93;;
39050;SDS011;24805;55.852;37.644;2023-12-04T21:40:55;19.17;;;8.57;;
39050;SDS011;24805;55.852;37.644;2023-12-04T21:45:57;18.33;;;8.77;;
39050;SDS011;24805;55.852;37.644;2023-12-04T21:50:59;20.27;;;8.02;;
39050;SDS011;24805;55.852;37.644;2023-12-04T21:56:02;16.88;;;8.77;;
39050;SDS011;24805;55.852;37.644;2023-12-04T22:01:04;18.02;;;7.97;;
39050;SDS011;24805;55.852;37.644;2023-12-04T22:06:07;21.25;;;9.30;;
39050;SDS011;24805;55.852;37.644;2023-12-04T22:11:10;22.02;;;9.05;;
39050;SDS011;24805;55.852;37.644;2023-12-04T22:16:12;20.30;;;9.43;;
39050;SDS011;24805;55.852;37.644;2023-12-04T22:21:14;17.83;;;8.13;;
39050;SDS011;24805;55.852;37.644;2023-12-04T22:26:20;18.33;;;7.78;;
39050;SDS011;24805;55.852;37.644;2023-12-04T22:31:22;18.60;;;8.68;;
39050;SDS011;24805;55.852;37.644;2023-12-04T22:36:24;19.65;;;8.65;;
39050;SDS011;24805;55.852;37.644;2023-12-04T22:41:27;17.63;;;8.55;;
39050;SDS011;24805;55.852;37.644;2023-12-04T22:46:30;13.40;;;6.82;;
39050;SDS011;24805;55.852;37.644;2023-12-04T22:51:32;18.23;;;8.15;;
39050;SDS011;24805;55.852;37.644;2023-12-04T22:56:34;16.58;;;7.13;;
39050;SDS011;24805;55.852;37.644;2023-12-04T23:01:36;19.02;;;7.70;;
39050;SDS011;24805;55.852;37.644;2023-12-04T23:06:39;16.98;;;7.60;;
39050;SDS011;24805;55.852;37.644;2023-12-04T23:11:41;17.55;;;7.95;;
39050;SDS011;24805;55.852;37.644;2023-12-04T23:16:44;20.38;;;8.07;;
39050;SDS011;24805;55.852;37.644;2023-12-04T23:21:46;20.00;;;8.43;;
39050;SDS011;24805;55.852;37.644;2023-12-04T23:26:49;17.77;;;8.40;;
39050;SDS011;24805;55.852;37.644;2023-12-04T23:31:51;14.98;;;7.80;;
39050;SDS011;24805;55.852;37.644;2023-12-04T23:36:53;20.70;;;8.00;;
39050;SDS011;24805;55.852;37.644;2023-12-04T23:41:55;18.20;;;7.43;;
39050;SDS011;24805;55.852;37.644;2023-12-04T23:46:57;18.25;;;8.73;;
39050;SDS011;24805;55.852;37.644;2023-12-04T23:52:00;15.45;;;7.15;;
39050;SDS011;24805;55.852;37.644;2023-12-04T23:57:02;14.73;;;7.15;;
